MMZH/ZIH METAR and TAF weather

Enter ICAO airport designator
Station Type Date Time Source
MMZH METAR 2020/02/26 02:44 UTC NOAA

MMZH 260244Z 00000KT 7SM SKC 25/20 A2987 RMK SLP106 52017 907 HZY ISOL CU


Station Type Date Time Source
MMZH Decoded METAR 2020/02/26 02:44 UTC NOAA

Ixtapa-Zihuatanejo, Mexico (MMZH) 17-36N 101-28W
Feb 25, 2020 - 09:44 PM EST / 2020.02.26 0244 UTC
Wind: Calm:0
Visibility: 7 mile(s):0
Sky conditions: clear
Temperature: 77 F (25 C)
Dew Point: 68 F (20 C)
Relative Humidity: 73%
Pressure (altimeter): 29.87 in. Hg (1011 hPa)
Pressure tendency: 0.05 inches (1.7 hPa) higher than three hours ago
ob: MMZH 260244Z 00000KT 7SM SKC 25/20 A2987 RMK SLP106 52017 907 HZY ISOL CU
cycle: 2

Station Type Date Time Source
MMZH TAF 2020/02/26 06:36 UTC NOAA

TAF MMZH 260429Z 2606/2706 00000KT P6SM SKC
FM261800 24010KT P6SM SCT020 SCT250
FM270500 00000KT P6SM SKC

Example: see airport list